Time;durP1;ratioP1;P1;durP2;ratioP2;P2;SDS_P1;SDS_P2;PMS_P1;PMS_P2;Temp;Humidity;BMP_temperature;BMP_pressure;BME280_temperature;BME280_humidity;BME280_pressure;Samples;Min_cycle;Max_cycle;Signal;HPM_P1;HPM_P2
2021/11/17 02:25:50;;;;;;;3.78;1.92;;;;;;;;;;7390816;19;20018;-57
2021/11/17 02:28:27;;;;;;;2.30;1.17;;;;;;;;;;7390435;19;20010;-59
2021/11/17 02:31:15;;;;;;;2.95;1.85;;;;;;;;;;7390292;19;20016;-59
2021/11/17 02:33:54;;;;;;;2.97;1.60;;;;;;;;;;7390249;19;20014;-58
2021/11/17 02:36:29;;;;;;;4.95;2.30;;;;;;;;;;7390096;19;20011;-60
2021/11/17 02:39:15;;;;;;;;;;;;;;;;;;7392050;19;20458;-58
2021/11/17 02:42:11;;;;;;;7.90;2.55;;;;;;;;;;7390800;19;19919;-59
2021/11/17 02:44:51;;;;;;;5.32;2.30;;;;;;;;;;7389627;19;20007;-58
2021/11/17 02:47:30;;;;;;;3.92;1.85;;;;;;;;;;7390391;19;20383;-58
2021/11/17 02:50:13;;;;;;;4.53;2.20;;;;;;;;;;7388251;19;20019;-59
2021/11/17 02:52:47;;;;;;;4.68;1.95;;;;;;;;;;7392283;19;20014;-59
2021/11/17 02:55:20;;;;;;;6.70;2.45;;;;;;;;;;7388752;19;20037;-58
2021/11/17 02:58:12;;;;;;;5.05;2.67;;;;;;;;;;7389711;19;20017;-58
2021/11/17 03:01:04;;;;;;;9.52;2.20;;;;;;;;;;7389739;19;20054;-56
2021/11/17 03:04:18;;;;;;;4.88;2.25;;;;;;;;;;7390151;19;20028;-58
2021/11/17 03:06:48;;;;;;;5.22;1.85;;;;;;;;;;7391878;19;20017;-58
2021/11/17 03:09:57;;;;;;;5.18;2.55;;;;;;;;;;7395360;19;20039;-58
2021/11/17 03:12:50;;;;;;;4.20;2.08;;;;;;;;;;7395349;19;20021;-57
2021/11/17 03:15:31;;;;;;;3.33;1.70;;;;;;;;;;7396913;19;20017;-54
2021/11/17 03:18:34;;;;;;;5.00;2.00;;;;;;;;;;7396502;19;20022;-57
2021/11/17 03:21:13;;;;;;;5.18;2.10;;;;;;;;;;7396503;19;20032;-56
2021/11/17 03:24:25;;;;;;;7.10;1.80;;;;;;;;;;7396455;19;20042;-59
2021/11/17 03:27:17;;;;;;;4.32;1.80;;;;;;;;;;7397241;19;20014;-54
2021/11/17 03:30:04;;;;;;;4.53;1.88;;;;;;;;;;7393877;19;20011;-60
2021/11/17 03:32:47;;;;;;;5.18;1.92;;;;;;;;;;7397327;19;20007;-55
2021/11/17 03:35:36;;;;;;;4.38;1.75;;;;;;;;;;7396548;19;20017;-59
2021/11/17 03:38:38;;;;;;;3.92;1.83;;;;;;;;;;7396995;19;20007;-59
2021/11/17 03:41:23;;;;;;;3.75;1.80;;;;;;;;;;7396710;19;20019;-60
2021/11/17 03:44:44;;;;;;;3.38;1.63;;;;;;;;;;7394676;19;20022;-56
2021/11/17 03:47:24;;;;;;;3.38;1.65;;;;;;;;;;7392080;19;20014;-57
2021/11/17 03:49:57;;;;;;;2.63;1.30;;;;;;;;;;7393147;19;20014;-59
2021/11/17 03:52:39;;;;;;;6.90;3.08;;;;;;;;;;7398065;19;20015;-58
2021/11/17 03:55:34;;;;;;;3.33;1.95;;;;;;;;;;7394621;19;20098;-58
2021/11/17 03:58:15;;;;;;;4.38;1.70;;;;;;;;;;7395945;19;20487;-59
2021/11/17 04:01:14;;;;;;;5.35;1.60;;;;;;;;;;7396258;19;20011;-58
2021/11/17 04:04:20;;;;;;;3.28;1.30;;;;;;;;;;7395514;19;20019;-58
2021/11/17 04:07:00;;;;;;;29.70;11.65;;;;;;;;;;7395184;19;20101;-57
2021/11/17 04:09:45;;;;;;;18.23;7.32;;;;;;;;;;7394110;19;20010;-59
2021/11/17 04:12:28;;;;;;;10.05;4.25;;;;;;;;;;7394744;19;20014;-59
2021/11/17 04:15:28;;;;;;;5.85;1.70;;;;;;;;;;7395190;19;20021;-57
2021/11/17 04:18:16;;;;;;;4.90;1.83;;;;;;;;;;7394435;19;20046;-58
2021/11/17 04:20:55;;;;;;;3.92;1.50;;;;;;;;;;7394332;19;20006;-58
2021/11/17 04:23:37;;;;;;;4.18;1.52;;;;;;;;;;7395101;19;20478;-54
2021/11/17 04:26:23;;;;;;;3.15;1.50;;;;;;;;;;7396679;19;20042;-58
2021/11/17 04:29:16;;;;;;;4.40;1.52;;;;;;;;;;7394332;19;20010;-59
2021/11/17 04:32:06;;;;;;;4.22;1.60;;;;;;;;;;7394820;19;20032;-59
2021/11/17 04:34:55;;;;;;;4.43;1.50;;;;;;;;;;7395423;19;20010;-60
2021/11/17 04:37:39;;;;;;;7.97;2.75;;;;;;;;;;7394110;19;20019;-59
2021/11/17 04:40:36;;;;;;;8.07;1.55;;;;;;;;;;7394785;19;20013;-59
2021/11/17 04:43:09;;;;;;;5.15;1.42;;;;;;;;;;7394775;19;20034;-58
2021/11/17 04:45:51;;;;;;;4.57;1.15;;;;;;;;;;7394378;19;20413;-60
2021/11/17 04:48:28;;;;;;;3.97;1.27;;;;;;;;;;7393853;19;20021;-58
2021/11/17 04:51:25;;;;;;;5.60;1.83;;;;;;;;;;7394251;19;20020;-58
2021/11/17 04:54:02;;;;;;;6.82;1.85;;;;;;;;;;7392902;19;20382;-59
2021/11/17 04:56:32;;;;;;;4.93;1.40;;;;;;;;;;7398694;19;20010;-59
2021/11/17 04:59:25;;;;;;;10.70;1.40;;;;;;;;;;7397619;19;20013;-57
2021/11/17 05:02:13;;;;;;;4.70;1.27;;;;;;;;;;7393564;19;20017;-58
2021/11/17 05:04:58;;;;;;;2.30;0.90;;;;;;;;;;7393934;19;20022;-59
2021/11/17 05:07:50;;;;;;;2.38;1.00;;;;;;;;;;7393707;19;20014;-59
2021/11/17 05:10:48;;;;;;;5.75;1.52;;;;;;;;;;7391756;19;20023;-59
2021/11/17 05:13:57;;;;;;;49.83;22.90;;;;;;;;;;7393181;19;20013;-58
2021/11/17 05:16:55;;;;;;;11.38;6.30;;;;;;;;;;7392103;19;20089;-59
2021/11/17 05:19:40;;;;;;;5.60;2.08;;;;;;;;;;7393016;19;20483;-60
2021/11/17 05:22:07;;;;;;;2.92;1.38;;;;;;;;;;7393350;19;20033;-59
2021/11/17 05:25:07;;;;;;;2.42;1.40;;;;;;;;;;7393622;19;20021;-59
2021/11/17 05:28:01;;;;;;;2.30;1.00;;;;;;;;;;7393725;19;20011;-57
2021/11/17 05:30:56;;;;;;;2.75;1.25;;;;;;;;;;7388678;19;20036;-59
2021/11/17 05:33:36;;;;;;;2.50;1.60;;;;;;;;;;7392819;19;20018;-57
2021/11/17 05:36:28;;;;;;;5.18;2.13;;;;;;;;;;7393085;19;20014;-59
2021/11/17 05:39:35;;;;;;;30.00;16.88;;;;;;;;;;7390092;19;20503;-59
2021/11/17 05:42:30;;;;;;;4.60;2.22;;;;;;;;;;7392393;19;20018;-59
2021/11/17 05:45:41;;;;;;;3.35;1.80;;;;;;;;;;7392891;19;20631;-59
2021/11/17 05:48:11;;;;;;;3.88;1.10;;;;;;;;;;7391877;19;20014;-59
2021/11/17 05:51:09;;;;;;;2.20;1.00;;;;;;;;;;7387237;19;20482;-54
2021/11/17 05:53:45;;;;;;;1.63;0.82;;;;;;;;;;7395980;19;20010;-58
2021/11/17 05:56:26;;;;;;;3.25;1.15;;;;;;;;;;7391977;19;20039;-58
2021/11/17 05:59:14;;;;;;;1.40;0.75;;;;;;;;;;7392534;19;20046;-60
2021/11/17 06:01:57;;;;;;;2.60;0.90;;;;;;;;;;7392032;19;20018;-59
2021/11/17 06:04:24;;;;;;;2.53;1.30;;;;;;;;;;7391151;19;20007;-57
2021/11/17 06:06:52;;;;;;;3.05;0.95;;;;;;;;;;7391386;19;20015;-59
2021/11/17 06:09:19;;;;;;;2.53;1.05;;;;;;;;;;7390703;19;20018;-58
2021/11/17 06:11:49;;;;;;;2.38;1.08;;;;;;;;;;7391491;19;20025;-59
2021/11/17 06:14:48;;;;;;;3.10;0.90;;;;;;;;;;7391281;19;20496;-60
2021/11/17 06:17:24;;;;;;;3.33;1.50;;;;;;;;;;7390669;19;20018;-59
2021/11/17 06:19:54;;;;;;;1.70;0.80;;;;;;;;;;7390681;19;20022;-58
2021/11/17 06:22:25;;;;;;;3.65;1.05;;;;;;;;;;7391355;19;20014;-60
2021/11/17 06:24:55;;;;;;;1.45;0.98;;;;;;;;;;7391008;19;20010;-61
2021/11/17 06:27:26;;;;;;;1.27;0.73;;;;;;;;;;7390882;19;20019;-59
2021/11/17 06:29:58;;;;;;;1.73;0.90;;;;;;;;;;7388684;19;20498;-59
2021/11/17 06:32:27;;;;;;;2.33;1.33;;;;;;;;;;7390906;19;20021;-59
2021/11/17 06:34:58;;;;;;;2.45;1.60;;;;;;;;;;7390943;19;20014;-59
2021/11/17 06:37:27;;;;;;;5.45;1.40;;;;;;;;;;7390579;19;20014;-58
2021/11/17 06:40:00;;;;;;;2.53;1.23;;;;;;;;;;7389410;19;20007;-59
2021/11/17 06:42:32;;;;;;;3.67;1.52;;;;;;;;;;7390510;19;20079;-58
2021/11/17 06:44:59;;;;;;;3.88;1.40;;;;;;;;;;7388664;19;20020;-59
2021/11/17 06:47:26;;;;;;;4.22;1.35;;;;;;;;;;7390503;19;20031;-56
2021/11/17 06:49:55;;;;;;;3.90;1.33;;;;;;;;;;7389393;19;20115;-57
2021/11/17 06:52:23;;;;;;;2.47;1.13;;;;;;;;;;7391730;19;20011;-59
2021/11/17 06:54:51;;;;;;;2.45;1.45;;;;;;;;;;7389181;19;20017;-60
2021/11/17 06:57:19;;;;;;;3.90;1.10;;;;;;;;;;7390198;19;20039;-57
2021/11/17 06:59:47;;;;;;;1.42;0.80;;;;;;;;;;7390532;19;20011;-60
2021/11/17 07:02:15;;;;;;;1.10;0.60;;;;;;;;;;7390633;19;20014;-58
2021/11/17 07:04:43;;;;;;;2.70;1.45;;;;;;;;;;7390648;19;20081;-60
2021/11/17 07:07:13;;;;;;;1.55;0.98;;;;;;;;;;7390488;19;20014;-58
2021/11/17 07:09:42;;;;;;;0.80;0.57;;;;;;;;;;7388793;19;20017;-54
2021/11/17 07:12:12;;;;;;;1.67;0.60;;;;;;;;;;7389385;19;20021;-59
2021/11/17 07:14:40;;;;;;;0.88;0.50;;;;;;;;;;7390554;19;20018;-57
2021/11/17 07:17:08;;;;;;;1.48;0.40;;;;;;;;;;7389708;19;20015;-59
2021/11/17 07:19:35;;;;;;;1.30;0.70;;;;;;;;;;7389970;19;20424;-55
2021/11/17 07:22:07;;;;;;;0.95;0.60;;;;;;;;;;7389459;19;20011;-58
2021/11/17 07:24:38;;;;;;;1.00;0.70;;;;;;;;;;7389847;19;20028;-59
2021/11/17 07:27:08;;;;;;;0.52;0.50;;;;;;;;;;7389721;19;20483;-59
2021/11/17 07:29:35;;;;;;;1.02;0.63;;;;;;;;;;7388968;19;20015;-59
2021/11/17 07:32:03;;;;;;;1.42;0.80;;;;;;;;;;7389490;19;20011;-55
2021/11/17 07:34:31;;;;;;;1.38;0.60;;;;;;;;;;7389047;19;20100;-59
2021/11/17 07:36:58;;;;;;;0.60;0.45;;;;;;;;;;7391338;19;20504;-58
2021/11/17 07:39:25;;;;;;;4.28;1.05;;;;;;;;;;7389544;19;20017;-57
2021/11/17 07:41:53;;;;;;;3.75;1.75;;;;;;;;;;7389055;19;20010;-59
2021/11/17 07:44:22;;;;;;;3.60;1.67;;;;;;;;;;7389042;19;20507;-58
2021/11/17 07:46:54;;;;;;;5.05;2.83;;;;;;;;;;7388469;19;20018;-58
2021/11/17 07:49:22;;;;;;;4.97;2.55;;;;;;;;;;7388283;19;20022;-59
2021/11/17 07:51:50;;;;;;;3.65;1.70;;;;;;;;;;7389340;19;20046;-58
2021/11/17 07:54:19;;;;;;;2.85;1.20;;;;;;;;;;7395088;19;20022;-59
2021/11/17 07:56:48;;;;;;;2.40;1.25;;;;;;;;;;7395654;19;20018;-58
2021/11/17 07:59:21;;;;;;;2.28;0.98;;;;;;;;;;7396221;19;20014;-60
2021/11/17 08:01:50;;;;;;;1.60;0.90;;;;;;;;;;7396216;19;20015;-59
2021/11/17 08:04:22;;;;;;;3.17;0.90;;;;;;;;;;7396647;19;20014;-58
2021/11/17 08:06:51;;;;;;;1.67;1.00;;;;;;;;;;7395184;19;20029;-58
2021/11/17 08:09:19;;;;;;;1.45;1.00;;;;;;;;;;7395416;19;20023;-57
2021/11/17 08:11:47;;;;;;;1.33;0.80;;;;;;;;;;7395456;19;20359;-60
2021/11/17 08:14:16;;;;;;;1.30;0.82;;;;;;;;;;7395236;19;20034;-59
2021/11/17 08:16:43;;;;;;;2.17;1.00;;;;;;;;;;7395773;19;20011;-60
2021/11/17 08:19:10;;;;;;;1.20;0.93;;;;;;;;;;7395431;19;20018;-58
2021/11/17 08:21:38;;;;;;;1.48;1.08;;;;;;;;;;7394598;19;20206;-60
2021/11/17 08:24:05;;;;;;;1.65;1.00;;;;;;;;;;7395590;19;20045;-60
2021/11/17 08:26:33;;;;;;;1.40;0.80;;;;;;;;;;7395545;19;20006;-59
2021/11/17 08:29:00;;;;;;;0.75;0.65;;;;;;;;;;7395231;19;20018;-59
2021/11/17 08:31:28;;;;;;;3.13;1.08;;;;;;;;;;7395098;19;20398;-58
2021/11/17 08:33:56;;;;;;;1.30;0.80;;;;;;;;;;7395225;19;20018;-60
2021/11/17 08:36:24;;;;;;;1.02;0.70;;;;;;;;;;7395140;19;20022;-60
2021/11/17 08:38:54;;;;;;;0.70;0.70;;;;;;;;;;7394291;19;20382;-57
2021/11/17 08:41:23;;;;;;;0.90;0.60;;;;;;;;;;7394454;19;20019;-58
2021/11/17 08:43:52;;;;;;;0.82;0.57;;;;;;;;;;7394355;19;20014;-58
2021/11/17 08:46:21;;;;;;;0.88;0.70;;;;;;;;;;7394807;19;20014;-59
2021/11/17 08:48:48;;;;;;;3.75;0.65;;;;;;;;;;7394317;19;20010;-58
2021/11/17 08:51:19;;;;;;;0.90;0.70;;;;;;;;;;7392280;19;20014;-58
2021/11/17 08:53:47;;;;;;;1.75;1.08;;;;;;;;;;7397635;19;20423;-59
2021/11/17 08:56:18;;;;;;;2.53;1.05;;;;;;;;;;7394101;19;20011;-59
2021/11/17 08:59:04;;;;;;;1.80;0.70;;;;;;;;;;7397817;19;20018;-59
2021/11/17 09:01:44;;;;;;;1.50;0.80;;;;;;;;;;7394189;19;20014;-57
2021/11/17 09:04:12;;;;;;;2.38;1.30;;;;;;;;;;7393374;19;20429;-59
2021/11/17 09:06:40;;;;;;;3.72;1.77;;;;;;;;;;7393162;19;20038;-59
2021/11/17 09:09:08;;;;;;;4.18;1.98;;;;;;;;;;7394009;19;20035;-60
2021/11/17 09:11:37;;;;;;;3.15;1.45;;;;;;;;;;7393993;19;20014;-60
2021/11/17 09:14:05;;;;;;;5.47;2.20;;;;;;;;;;7393842;19;20013;-56
2021/11/17 09:16:34;;;;;;;5.60;2.92;;;;;;;;;;7392676;19;20007;-59
2021/11/17 09:19:04;;;;;;;9.35;4.45;;;;;;;;;;7393758;19;20034;-59
2021/11/17 09:21:34;;;;;;;5.95;3.17;;;;;;;;;;7391489;19;20015;-56
2021/11/17 09:24:03;;;;;;;9.50;4.78;;;;;;;;;;7393426;19;20094;-58
2021/11/17 09:26:31;;;;;;;9.52;5.38;;;;;;;;;;7393021;19;20090;-60
2021/11/17 09:28:59;;;;;;;9.57;4.90;;;;;;;;;;7392714;19;20013;-56
2021/11/17 09:31:30;;;;;;;6.18;4.07;;;;;;;;;;7390843;19;20007;-59
2021/11/17 09:33:59;;;;;;;7.82;3.58;;;;;;;;;;7392789;19;20106;-61
2021/11/17 09:36:30;;;;;;;4.70;2.60;;;;;;;;;;7392292;19;20014;-58
2021/11/17 09:38:58;;;;;;;2.70;1.75;;;;;;;;;;7392773;19;20531;-58
2021/11/17 09:41:29;;;;;;;3.55;1.70;;;;;;;;;;7392505;19;20007;-59
2021/11/17 09:44:04;;;;;;;2.58;1.40;;;;;;;;;;7392751;19;20042;-56
2021/11/17 09:46:34;;;;;;;2.47;1.50;;;;;;;;;;7391289;19;20070;-58
2021/11/17 09:49:07;;;;;;;2.75;1.45;;;;;;;;;;7392422;19;20018;-58
2021/11/17 09:51:41;;;;;;;2.45;1.30;;;;;;;;;;7390275;19;20039;-60
2021/11/17 09:54:11;;;;;;;;;;;;;;;;;;7392310;19;20011;-60
2021/11/17 09:56:49;;;;;;;2.60;1.00;;;;;;;;;;7392577;19;19922;-57
2021/11/17 09:59:42;;;;;;;4.05;1.85;;;;;;;;;;7392244;19;20021;-56
2021/11/17 10:02:16;;;;;;;2.88;1.67;;;;;;;;;;7392170;19;20023;-57
2021/11/17 10:05:20;;;;;;;5.78;2.67;;;;;;;;;;7391729;19;20025;-58
2021/11/17 10:13:11;;;;;;;4.90;2.30;;;;;;;;;;7391941;19;20015;-59
2021/11/17 10:15:42;;;;;;;16.45;9.80;;;;;;;;;;7393125;19;20034;-57
2021/11/17 10:18:09;;;;;;;51.65;31.77;;;;;;;;;;7392335;19;20015;-59
2021/11/17 10:20:40;;;;;;;59.42;29.10;;;;;;;;;;7392241;19;20010;-59
2021/11/17 10:23:08;;;;;;;13.30;7.57;;;;;;;;;;7391609;19;20054;-59
2021/11/17 10:25:46;;;;;;;4.18;2.05;;;;;;;;;;7391843;19;20030;-59
2021/11/17 10:28:22;;;;;;;3.85;2.22;;;;;;;;;;7391081;19;20002;-59
2021/11/17 10:30:50;;;;;;;3.88;1.67;;;;;;;;;;7389576;19;20023;-59
2021/11/17 10:33:46;;;;;;;2.85;1.70;;;;;;;;;;7391540;19;20015;-59
2021/11/17 10:36:19;;;;;;;2.30;1.42;;;;;;;;;;7391011;19;20017;-58
2021/11/17 10:38:52;;;;;;;;;;;;;;;;;;7391341;19;20010;-59
2021/11/17 10:41:26;;;;;;;1.77;1.17;;;;;;;;;;7390812;19;19922;-59
2021/11/17 10:44:02;;;;;;;1.95;1.20;;;;;;;;;;7390180;19;20018;-59
2021/11/17 10:46:42;;;;;;;2.17;1.30;;;;;;;;;;7391116;19;20018;-58
2021/11/17 10:49:14;;;;;;;2.40;1.50;;;;;;;;;;7390501;19;20014;-59
2021/11/17 10:51:58;;;;;;;1.65;1.00;;;;;;;;;;7387134;19;20023;-57
2021/11/17 10:54:29;;;;;;;1.33;0.90;;;;;;;;;;7389289;19;20015;-59
2021/11/17 10:57:08;;;;;;;3.40;2.00;;;;;;;;;;7390563;19;20078;-59
2021/11/17 10:59:37;;;;;;;2.90;1.45;;;;;;;;;;7391133;19;20003;-59
2021/11/17 11:02:12;;;;;;;4.03;2.47;;;;;;;;;;7390926;19;20014;-60
2021/11/17 11:04:44;;;;;;;3.25;1.63;;;;;;;;;;7390486;19;20015;-59
2021/11/17 11:07:29;;;;;;;2.30;1.10;;;;;;;;;;7390160;19;20094;-60
2021/11/17 11:10:37;;;;;;;2.33;1.23;;;;;;;;;;7389499;19;20018;-58
2021/11/17 11:13:09;;;;;;;1.67;0.90;;;;;;;;;;7389822;19;20364;-56
2021/11/17 11:15:39;;;;;;;1.50;0.98;;;;;;;;;;7390203;19;20483;-58
2021/11/17 11:18:08;;;;;;;1.40;1.00;;;;;;;;;;7389975;19;20123;-58
2021/11/17 11:20:43;;;;;;;1.23;0.90;;;;;;;;;;7389714;19;20006;-58
2021/11/17 11:23:23;;;;;;;1.52;0.93;;;;;;;;;;7388312;19;20049;-60
2021/11/17 11:26:04;;;;;;;1.55;0.93;;;;;;;;;;7388734;19;20487;-60
2021/11/17 11:28:36;;;;;;;1.48;0.70;;;;;;;;;;7393865;19;20006;-60
2021/11/17 11:31:11;;;;;;;0.88;0.68;;;;;;;;;;7395448;19;20021;-59
2021/11/17 11:33:49;;;;;;;0.90;0.70;;;;;;;;;;7397376;19;20014;-59
2021/11/17 11:36:22;;;;;;;1.42;0.90;;;;;;;;;;7396630;19;20483;-60
2021/11/17 11:38:59;;;;;;;1.17;0.55;;;;;;;;;;7399222;19;20508;-58
2021/11/17 11:41:29;;;;;;;1.50;0.88;;;;;;;;;;7396838;19;20010;-59
2021/11/17 11:44:19;;;;;;;2.55;1.08;;;;;;;;;;7395966;19;20507;-53
2021/11/17 11:46:50;;;;;;;1.35;1.00;;;;;;;;;;7396610;19;20305;-60
2021/11/17 11:49:41;;;;;;;3.85;1.40;;;;;;;;;;7396436;19;20022;-58
2021/11/17 11:52:24;;;;;;;2.30;0.93;;;;;;;;;;7396752;19;20019;-56
2021/11/17 11:54:51;;;;;;;1.75;1.30;;;;;;;;;;7394801;19;20021;-59
2021/11/17 11:57:49;;;;;;;1.55;0.80;;;;;;;;;;7396235;19;20503;-58
2021/11/17 12:00:36;;;;;;;1.98;1.27;;;;;;;;;;7396263;19;20082;-59
2021/11/17 12:03:07;;;;;;;2.20;1.30;;;;;;;;;;7395153;19;20010;-59
2021/11/17 12:05:53;;;;;;;1.23;0.90;;;;;;;;;;7396244;19;20018;-60
2021/11/17 12:08:26;;;;;;;1.85;0.80;;;;;;;;;;7395427;19;20511;-59
2021/11/17 12:11:05;;;;;;;1.15;0.82;;;;;;;;;;7394853;19;20032;-57
2021/11/17 12:13:39;;;;;;;1.63;1.10;;;;;;;;;;7395521;19;20010;-58
2021/11/17 12:16:12;;;;;;;2.75;1.10;;;;;;;;;;7395706;19;20151;-60
2021/11/17 12:18:46;;;;;;;1.98;1.08;;;;;;;;;;7395914;19;20030;-59
2021/11/17 12:21:39;;;;;;;1.58;1.00;;;;;;;;;;7395443;19;20010;-58
2021/11/17 12:24:10;;;;;;;2.15;1.08;;;;;;;;;;7395187;19;20022;-59
2021/11/17 12:26:44;;;;;;;1.40;0.90;;;;;;;;;;7395905;19;20014;-58
2021/11/17 12:29:16;;;;;;;2.00;1.10;;;;;;;;;;7393471;19;20086;-59
2021/11/17 12:31:55;;;;;;;1.95;1.20;;;;;;;;;;7392617;19;20035;-60
2021/11/17 12:34:30;;;;;;;1.95;1.17;;;;;;;;;;7394551;19;20006;-57
2021/11/17 12:37:01;;;;;;;2.10;1.42;;;;;;;;;;7394748;19;20067;-60
2021/11/17 12:39:32;;;;;;;1.63;1.10;;;;;;;;;;7393471;19;20015;-60
2021/11/17 12:42:06;;;;;;;2.75;1.60;;;;;;;;;;7395129;19;20273;-59
2021/11/17 12:44:43;;;;;;;3.35;1.30;;;;;;;;;;7394959;19;20034;-58
2021/11/17 12:47:17;;;;;;;2.92;1.40;;;;;;;;;;7394435;19;20013;-58
2021/11/17 12:50:25;;;;;;;4.30;1.45;;;;;;;;;;7394566;19;20007;-59
2021/11/17 12:53:20;;;;;;;2.40;0.90;;;;;;;;;;7393468;19;20013;-59
2021/11/17 12:55:56;;;;;;;2.45;1.25;;;;;;;;;;7391974;19;20082;-60
2021/11/17 12:58:42;;;;;;;2.70;1.30;;;;;;;;;;7396563;19;20092;-56
2021/11/17 13:01:40;;;;;;;2.47;1.27;;;;;;;;;;7392530;19;20034;-59
2021/11/17 13:04:12;;;;;;;2.83;1.52;;;;;;;;;;7394299;19;20011;-59
2021/11/17 13:06:41;;;;;;;4.63;1.33;;;;;;;;;;7394385;19;20014;-59
2021/11/17 13:09:16;;;;;;;2.63;1.60;;;;;;;;;;7394452;19;20022;-59
2021/11/17 13:12:07;;;;;;;2.88;1.50;;;;;;;;;;7392176;19;20058;-57
2021/11/17 13:14:47;;;;;;;2.70;1.52;;;;;;;;;;7393137;19;20006;-59
2021/11/17 13:17:17;;;;;;;3.00;1.60;;;;;;;;;;7393413;19;20017;-59
2021/11/17 13:19:51;;;;;;;2.97;1.70;;;;;;;;;;7393394;19;20053;-59
2021/11/17 13:22:38;;;;;;;;;;;;;;;;;;7393998;19;20018;-58
2021/11/17 13:25:19;;;;;;;3.72;1.40;;;;;;;;;;7393956;19;19918;-58
2021/11/17 13:27:59;;;;;;;2.65;1.30;;;;;;;;;;7392569;19;20010;-59
2021/11/17 13:30:33;;;;;;;2.50;1.27;;;;;;;;;;7390847;19;20026;-59
2021/11/17 13:33:28;;;;;;;2.78;1.42;;;;;;;;;;7392546;19;20022;-57
2021/11/17 13:36:09;;;;;;;104.90;38.25;;;;;;;;;;7390509;19;20018;-58
2021/11/17 13:38:41;;;;;;;24.52;11.30;;;;;;;;;;7390191;19;20017;-55
2021/11/17 13:41:09;;;;;;;4.63;2.20;;;;;;;;;;7390519;19;20018;-61
2021/11/17 13:43:39;;;;;;;3.42;1.80;;;;;;;;;;7390498;19;20014;-57
2021/11/17 13:46:12;;;;;;;4.05;1.30;;;;;;;;;;7388942;19;20014;-56
2021/11/17 13:48:42;;;;;;;3.30;1.50;;;;;;;;;;7390247;19;20031;-59
2021/11/17 13:51:13;;;;;;;3.25;1.58;;;;;;;;;;7386762;19;20014;-55
2021/11/17 13:53:42;;;;;;;3.13;1.60;;;;;;;;;;7393100;19;20007;-58
2021/11/17 13:56:21;;;;;;;2.97;1.20;;;;;;;;;;7390141;19;20527;-59
2021/11/17 13:58:49;;;;;;;2.05;1.17;;;;;;;;;;7389441;19;20543;-59
2021/11/17 14:01:18;;;;;;;2.35;1.50;;;;;;;;;;7389440;19;20017;-59
2021/11/17 14:03:46;;;;;;;1.92;1.02;;;;;;;;;;7388240;19;20014;-59
2021/11/17 14:06:17;;;;;;;3.22;1.30;;;;;;;;;;7387165;19;20038;-56
2021/11/17 14:08:46;;;;;;;2.20;1.40;;;;;;;;;;7389660;19;20014;-59
2021/11/17 14:11:15;;;;;;;3.55;1.33;;;;;;;;;;7391048;19;20018;-58
2021/11/17 14:13:44;;;;;;;4.68;2.30;;;;;;;;;;7391319;19;20386;-57
2021/11/17 14:16:14;;;;;;;2.67;1.40;;;;;;;;;;7391375;19;20017;-59
2021/11/17 14:18:42;;;;;;;2.47;1.20;;;;;;;;;;7392357;19;20014;-59
2021/11/17 14:21:14;;;;;;;2.13;1.20;;;;;;;;;;7391199;19;20022;-59
2021/11/17 14:23:42;;;;;;;3.13;1.27;;;;;;;;;;7391519;19;20010;-59
2021/11/17 14:26:16;;;;;;;6.60;3.03;;;;;;;;;;7391547;19;20011;-58
2021/11/17 14:28:48;;;;;;;6.53;3.90;;;;;;;;;;7391372;19;20011;-61
2021/11/17 14:31:34;;;;;;;7.22;4.20;;;;;;;;;;7389936;19;20014;-61
2021/11/17 14:34:04;;;;;;;47.70;24.73;;;;;;;;;;7390375;19;20037;-58
2021/11/17 14:36:35;;;;;;;6.57;4.00;;;;;;;;;;7390535;19;20014;-59
2021/11/17 14:39:06;;;;;;;4.30;2.75;;;;;;;;;;7389697;19;20015;-58
2021/11/17 14:41:35;;;;;;;4.28;2.40;;;;;;;;;;7391240;19;20034;-58
2021/11/17 14:44:04;;;;;;;4.88;2.15;;;;;;;;;;7390568;19;20014;-59
2021/11/17 14:46:32;;;;;;;2.85;1.55;;;;;;;;;;7390704;19;20451;-58
2021/11/17 14:49:00;;;;;;;2.72;1.23;;;;;;;;;;7388485;19;20050;-59
2021/11/17 14:51:29;;;;;;;2.70;1.25;;;;;;;;;;7389469;19;20491;-58
2021/11/17 14:53:57;;;;;;;3.92;1.73;;;;;;;;;;7394582;19;20022;-58
2021/11/17 14:56:25;;;;;;;3.67;1.42;;;;;;;;;;7390143;19;20719;-59
2021/11/17 14:58:53;;;;;;;83.82;31.75;;;;;;;;;;7390699;19;20017;-57
2021/11/17 15:01:31;;;;;;;76.60;31.38;;;;;;;;;;7393365;19;20014;-59
2021/11/17 15:04:02;;;;;;;17.23;6.65;;;;;;;;;;7403676;19;20030;-59
2021/11/17 15:06:32;;;;;;;4.60;1.90;;;;;;;;;;7403680;19;20475;-59
2021/11/17 15:09:00;;;;;;;4.07;1.45;;;;;;;;;;7403893;19;20039;-58
2021/11/17 15:11:28;;;;;;;5.00;1.30;;;;;;;;;;7402990;19;20078;-58
2021/11/17 15:13:55;;;;;;;2.22;1.20;;;;;;;;;;7403770;19;20010;-58
2021/11/17 15:16:23;;;;;;;2.30;1.40;;;;;;;;;;7403646;19;20029;-59
2021/11/17 15:18:51;;;;;;;2.22;1.30;;;;;;;;;;7403655;19;20110;-60
2021/11/17 15:21:20;;;;;;;2.58;1.20;;;;;;;;;;7403805;19;20015;-59
2021/11/17 15:23:48;;;;;;;2.97;1.25;;;;;;;;;;7403999;19;20136;-59
2021/11/17 15:26:16;;;;;;;2.60;1.42;;;;;;;;;;7406944;19;20025;-60
2021/11/17 15:28:48;;;;;;;2.97;1.10;;;;;;;;;;7403508;19;20014;-60
2021/11/17 15:31:23;;;;;;;5.25;1.35;;;;;;;;;;7403192;19;20014;-57
2021/11/17 15:33:50;;;;;;;1.92;1.15;;;;;;;;;;7403265;19;20010;-59
2021/11/17 15:36:22;;;;;;;3.30;1.60;;;;;;;;;;7403554;19;20020;-59
2021/11/17 15:38:50;;;;;;;3.33;1.60;;;;;;;;;;7404394;19;20024;-59
2021/11/17 15:41:22;;;;;;;2.10;1.20;;;;;;;;;;7403660;19;20038;-59
2021/11/17 15:43:51;;;;;;;284.67;160.13;;;;;;;;;;7403151;19;20017;-58
2021/11/17 15:46:22;;;;;;;31.40;19.02;;;;;;;;;;7402811;19;20030;-59
2021/11/17 15:48:49;;;;;;;16.88;8.80;;;;;;;;;;7403215;19;20029;-59
2021/11/17 15:51:27;;;;;;;3.15;1.60;;;;;;;;;;7401923;19;20002;-58
2021/11/17 15:53:56;;;;;;;2.38;1.27;;;;;;;;;;7406414;19;20022;-59
2021/11/17 15:56:24;;;;;;;2.17;1.00;;;;;;;;;;7400110;19;20027;-59
2021/11/17 15:58:53;;;;;;;1.77;1.05;;;;;;;;;;7401147;19;20623;-58
2021/11/17 16:01:20;;;;;;;1.75;1.10;;;;;;;;;;7401593;19;20025;-59
2021/11/17 16:03:54;;;;;;;3.38;1.05;;;;;;;;;;7402448;19;20014;-58
2021/11/17 16:06:26;;;;;;;2.70;1.15;;;;;;;;;;7401622;19;20018;-58
2021/11/17 16:08:53;;;;;;;105.60;50.78;;;;;;;;;;7402489;19;20234;-58
2021/11/17 16:11:20;;;;;;;50.20;23.88;;;;;;;;;;7402265;19;20471;-55
2021/11/17 16:13:48;;;;;;;3.83;1.85;;;;;;;;;;7396526;19;20003;-57
2021/11/17 16:16:16;;;;;;;1.77;1.13;;;;;;;;;;7395796;19;20037;-58
2021/11/17 16:18:44;;;;;;;2.88;1.10;;;;;;;;;;7395676;19;20612;-60
2021/11/17 16:21:13;;;;;;;2.25;1.20;;;;;;;;;;7395867;19;20022;-56
2021/11/17 16:26:36;;;;;;;2.42;0.90;;;;;;;;;;7398081;19;20011;-58
2021/11/17 16:29:04;;;;;;;2.40;1.00;;;;;;;;;;7395287;19;20538;-59
2021/11/17 16:31:34;;;;;;;2.17;1.10;;;;;;;;;;7393827;19;20031;-55
2021/11/17 16:34:02;;;;;;;1.35;0.68;;;;;;;;;;7395046;19;20453;-58
2021/11/17 16:36:35;;;;;;;2.78;1.23;;;;;;;;;;7394873;19;20030;-57
2021/11/17 16:39:05;;;;;;;2.67;1.20;;;;;;;;;;7395073;19;20519;-58
2021/11/17 16:41:33;;;;;;;2.33;0.95;;;;;;;;;;7394124;19;20010;-56
2021/11/17 16:44:01;;;;;;;2.47;1.20;;;;;;;;;;7393802;19;20021;-58
2021/11/17 16:46:29;;;;;;;1.65;0.95;;;;;;;;;;7394552;19;20084;-59
2021/11/17 16:49:19;;;;;;;1.80;1.00;;;;;;;;;;7394947;19;20046;-59
2021/11/17 16:52:23;;;;;;;1.50;0.90;;;;;;;;;;7393158;19;20052;-58
2021/11/17 16:54:55;;;;;;;;;;;;;;;;;;7392308;19;20025;-60
2021/11/17 16:57:24;;;;;;;2.75;1.17;;;;;;;;;;7394700;19;19961;-52
2021/11/17 16:59:52;;;;;;;2.88;1.02;;;;;;;;;;7393757;19;20437;-53
2021/11/17 17:02:21;;;;;;;1.50;0.90;;;;;;;;;;7392938;19;20515;-57
2021/11/17 17:04:52;;;;;;;2.05;1.05;;;;;;;;;;7393782;19;20027;-60
2021/11/17 17:07:23;;;;;;;3.10;1.25;;;;;;;;;;7394066;19;20329;-59
2021/11/17 17:09:52;;;;;;;5.05;1.30;;;;;;;;;;7393334;19;20120;-59
2021/11/17 17:12:30;;;;;;;2.55;1.17;;;;;;;;;;7392588;19;20014;-57
2021/11/17 17:14:59;;;;;;;1.95;0.95;;;;;;;;;;7393158;19;20006;-58
2021/11/17 17:17:29;;;;;;;1.48;0.90;;;;;;;;;;7391484;19;20025;-59
2021/11/17 17:19:58;;;;;;;3.42;1.38;;;;;;;;;;7392971;19;20007;-58
2021/11/17 17:22:26;;;;;;;1.30;0.90;;;;;;;;;;7393308;19;20015;-59
2021/11/17 17:24:54;;;;;;;2.65;1.20;;;;;;;;;;7390729;19;20014;-55
2021/11/17 17:27:26;;;;;;;256.45;88.80;;;;;;;;;;7393028;19;20019;-58
2021/11/17 17:29:55;;;;;;;23.75;8.85;;;;;;;;;;7393180;19;20019;-59
2021/11/17 17:32:23;;;;;;;5.65;2.72;;;;;;;;;;7390620;19;20023;-56
2021/11/17 17:34:52;;;;;;;1.73;1.10;;;;;;;;;;7393136;19;20010;-59
2021/11/17 17:37:20;;;;;;;3.47;1.10;;;;;;;;;;7392518;19;20006;-59
2021/11/17 17:39:48;;;;;;;1.55;0.75;;;;;;;;;;7393397;19;20086;-58
2021/11/17 17:42:21;;;;;;;1.55;0.90;;;;;;;;;;7392889;19;20010;-57
2021/11/17 17:44:52;;;;;;;3.25;1.30;;;;;;;;;;7392108;19;20019;-57
2021/11/17 17:47:23;;;;;;;2.22;1.27;;;;;;;;;;7392458;19;20019;-58
2021/11/17 17:49:51;;;;;;;1.90;1.10;;;;;;;;;;7392088;19;20081;-59
2021/11/17 17:52:19;;;;;;;2.40;1.20;;;;;;;;;;7392486;19;20475;-58
2021/11/17 17:54:49;;;;;;;2.67;1.13;;;;;;;;;;7390904;19;20032;-60
2021/11/17 17:57:17;;;;;;;1.95;1.00;;;;;;;;;;7391747;19;20031;-55
2021/11/17 17:59:44;;;;;;;1.48;0.80;;;;;;;;;;7392069;19;20090;-59
2021/11/17 18:02:13;;;;;;;1.70;1.10;;;;;;;;;;7392318;19;20038;-57
2021/11/17 18:04:41;;;;;;;1.92;0.70;;;;;;;;;;7392622;19;20015;-54
2021/11/17 18:07:13;;;;;;;6.07;3.60;;;;;;;;;;7391146;19;20023;-61